MSC Lisbon — A8LL9 — position and weather

sailwx.info

Track history (hours):
 
Tides and Currents Weather Stations Pressure Air Temp Water Temp Dewpoint Dewpoint Depression Visibility Wind Speed Wind Dir Waves Ship Positions

MSC Lisbon

Last reported at 2017-May-21 18:00 UTC. Time now 2017-May-25 23:58 UTC.
Position N 19°18' E 039°18'.

Length 336.7 m; beam 45.6 m; draft 15.3 m.

Type: Ship (hazmat cat A). MMSI: 636091276.

Wind from 330 at 18 knots

Barometer 1006.0 mb
Air temperature 30.0 ° C
Visibility: greater than 10.8 NM
Dewpoint 22.5 ° C
Water temperature 30.0 ° C

Date/timePositionNaut miles runAvg speedWind from/ knotsBaromVisibWave heightAir tempDewpointWater temp
2017-May-21 18:00N 19°18' E 039°18'   330 / 181006.010.8 30.022.530.0
2017-May-18 19:45N 31°32' E 032°11'915.1
2017-May-18 19:10N 31°38' E 032°04'  
2017-May-16 08:08N 36°12' E 014°52'315.7
2017-May-16 07:58N 36°13' E 014°49'715.8
2017-May-16 07:30N 36°15' E 014°40'815.9
2017-May-16 07:00N 36°18' E 014°31'815.8
2017-May-16 06:30N 36°21' E 014°22'815.8
2017-May-16 06:00N 36°24' E 014°13'815.5
2017-May-16 05:30N 36°27' E 014°04'815.3
2017-May-16 05:00N 36°29' E 013°55'815.2
2017-May-16 04:30N 36°32' E 013°46'815.1
2017-May-16 04:00N 36°34' E 013°37'815.2
2017-May-16 03:30N 36°36' E 013°28'815.3
2017-May-16 03:00N 36°38' E 013°19'815.2
2017-May-16 02:30N 36°40' E 013°10'815.5
2017-May-16 02:00N 36°43' E 013°00'815.6
2017-May-16 01:30N 36°46' E 012°51'815.8
2017-May-16 01:00N 36°48' E 012°42'816.1
2017-May-16 00:30N 36°51' E 012°32'816.2
2017-May-16 00:00N 36°54' E 012°23'1916.0
2017-May-15 22:48N 37°00' E 012°00'515.7
2017-May-15 22:30N 37°02' E 011°55'815.5
2017-May-15 22:00N 37°05' E 011°46'715.3
2017-May-15 21:30N 37°09' E 011°38'815.3
2017-May-15 21:00N 37°13' E 011°30'815.2
2017-May-15 20:30N 37°17' E 011°22'3615.0
2017-May-15 18:07N 37°31' E 010°40'214.9
2017-May-15 18:00N 37°31' E 010°38'714.9
2017-May-15 17:30N 37°32' E 010°29'815.4
2017-May-15 17:00N 37°34' E 010°19'815.8
2017-May-15 16:30N 37°34' E 010°09'815.7
2017-May-15 16:00N 37°33' E 009°59'815.6
2017-May-15 15:30N 37°31' E 009°49'815.8
2017-May-15 15:00N 37°29' E 009°40'1815.8
2017-May-15 13:53N 37°24' E 009°19'615.5
2017-May-15 13:30N 37°22' E 009°12'815.4
2017-May-15 12:59N 37°19' E 009°02'815.2
2017-May-15 12:29N 37°19' E 008°53'715.2
2017-May-15 11:59N 37°19' E 008°43'13716.3
2017-May-15 03:34N 37°19' E 005°51'115.9
2017-May-15 03:30N 37°19' E 005°50'6115.8
2017-May-14 23:37N 37°13' E 004°33'215.9
2017-May-14 23:30N 37°13' E 004°31'816.2
2017-May-14 23:00N 37°12' E 004°21'816.0
2017-May-14 22:30N 37°12' E 004°11'815.9
2017-May-14 22:00N 37°11' E 004°01'816.0
2017-May-14 21:30N 37°10' E 003°51'815.9
2017-May-14 21:00N 37°09' E 003°41'815.7
2017-May-14 20:30N 37°08' E 003°31'1515.8
2017-May-14 19:33N 37°06' E 003°12'215.8
2017-May-14 19:27N 37°06' E 003°10'915.7
2017-May-14 18:54N 37°05' E 002°60'615.7
2017-May-14 18:30N 37°04' E 002°52'815.7
2017-May-14 18:00N 37°04' E 002°42'815.6
2017-May-14 17:30N 37°03' E 002°32'815.6
2017-May-14 17:00N 37°02' E 002°23'815.5
2017-May-14 16:30N 37°01' E 002°13'815.5
2017-May-14 16:00N 36°60' E 002°03'815.6
2017-May-14 15:30N 36°59' E 001°54'1115.9
2017-May-14 14:50N 36°57' E 001°41'4816.8
2017-May-14 12:00N 36°48' E 000°42'49816.6 250 / 61023.010.8 23.016.118.3
2017-May-13 06:00N 36°12' W 009°36'9816.4 270 / 111017.027.0 17.512.118.6
2017-May-13 00:00N 36°48' W 011°30'39916.6 260 / 101005.510.8 17.812.317.8
2017-May-12 00:00N 38°54' W 019°30'   300 / 171006.010.8 15.511.216.5
Track history (hours):
 
Tides and Currents Weather Stations Pressure Air Temp Water Temp Dewpoint Dewpoint Depression Visibility Wind Speed Wind Dir Waves Ship Positions

MSC Lisbon

Last reported at 2017-May-21 18:00 UTC. Time now 2017-May-25 23:58 UTC.
Position N 19°18' E 039°18'.

Length 336.7 m; beam 45.6 m; draft 15.3 m.

Type: Ship (hazmat cat A). MMSI: 636091276.

Wind from 330 at 18 knots

Barometer 1006.0 mb
Air temperature 30.0 ° C
Visibility: greater than 10.8 NM
Dewpoint 22.5 ° C
Water temperature 30.0 ° C

Date/timePositionNaut miles runAvg speedWind from/ knotsBaromVisibWave heightAir tempDewpointWater temp
2017-May-21 18:00N 19°18' E 039°18'   330 / 181006.010.8 30.022.530.0
2017-May-18 19:45N 31°32' E 032°11'915.1
2017-May-18 19:10N 31°38' E 032°04'  
2017-May-16 08:08N 36°12' E 014°52'315.7
2017-May-16 07:58N 36°13' E 014°49'715.8
2017-May-16 07:30N 36°15' E 014°40'815.9
2017-May-16 07:00N 36°18' E 014°31'815.8
2017-May-16 06:30N 36°21' E 014°22'815.8
2017-May-16 06:00N 36°24' E 014°13'815.5
2017-May-16 05:30N 36°27' E 014°04'815.3
2017-May-16 05:00N 36°29' E 013°55'815.2
2017-May-16 04:30N 36°32' E 013°46'815.1
2017-May-16 04:00N 36°34' E 013°37'815.2
2017-May-16 03:30N 36°36' E 013°28'815.3
2017-May-16 03:00N 36°38' E 013°19'815.2
2017-May-16 02:30N 36°40' E 013°10'815.5
2017-May-16 02:00N 36°43' E 013°00'815.6
2017-May-16 01:30N 36°46' E 012°51'815.8
2017-May-16 01:00N 36°48' E 012°42'816.1
2017-May-16 00:30N 36°51' E 012°32'816.2
2017-May-16 00:00N 36°54' E 012°23'1916.0
2017-May-15 22:48N 37°00' E 012°00'515.7
2017-May-15 22:30N 37°02' E 011°55'815.5
2017-May-15 22:00N 37°05' E 011°46'715.3
2017-May-15 21:30N 37°09' E 011°38'815.3
2017-May-15 21:00N 37°13' E 011°30'815.2
2017-May-15 20:30N 37°17' E 011°22'3615.0
2017-May-15 18:07N 37°31' E 010°40'214.9
2017-May-15 18:00N 37°31' E 010°38'714.9
2017-May-15 17:30N 37°32' E 010°29'815.4
2017-May-15 17:00N 37°34' E 010°19'815.8
2017-May-15 16:30N 37°34' E 010°09'815.7
2017-May-15 16:00N 37°33' E 009°59'815.6
2017-May-15 15:30N 37°31' E 009°49'815.8
2017-May-15 15:00N 37°29' E 009°40'1815.8
2017-May-15 13:53N 37°24' E 009°19'615.5
2017-May-15 13:30N 37°22' E 009°12'815.4
2017-May-15 12:59N 37°19' E 009°02'815.2
2017-May-15 12:29N 37°19' E 008°53'715.2
2017-May-15 11:59N 37°19' E 008°43'13716.3
2017-May-15 03:34N 37°19' E 005°51'115.9
2017-May-15 03:30N 37°19' E 005°50'6115.8
2017-May-14 23:37N 37°13' E 004°33'215.9
2017-May-14 23:30N 37°13' E 004°31'816.2
2017-May-14 23:00N 37°12' E 004°21'816.0
2017-May-14 22:30N 37°12' E 004°11'815.9
2017-May-14 22:00N 37°11' E 004°01'816.0
2017-May-14 21:30N 37°10' E 003°51'815.9
2017-May-14 21:00N 37°09' E 003°41'815.7
2017-May-14 20:30N 37°08' E 003°31'1515.8
2017-May-14 19:33N 37°06' E 003°12'215.8
2017-May-14 19:27N 37°06' E 003°10'915.7
2017-May-14 18:54N 37°05' E 002°60'615.7
2017-May-14 18:30N 37°04' E 002°52'815.7
2017-May-14 18:00N 37°04' E 002°42'815.6
2017-May-14 17:30N 37°03' E 002°32'815.6
2017-May-14 17:00N 37°02' E 002°23'815.5
2017-May-14 16:30N 37°01' E 002°13'815.5
2017-May-14 16:00N 36°60' E 002°03'815.6
2017-May-14 15:30N 36°59' E 001°54'1115.9
2017-May-14 14:50N 36°57' E 001°41'4816.8
2017-May-14 12:00N 36°48' E 000°42'49816.6 250 / 61023.010.8 23.016.118.3
2017-May-13 06:00N 36°12' W 009°36'9816.4 270 / 111017.027.0 17.512.118.6
2017-May-13 00:00N 36°48' W 011°30'39916.6 260 / 101005.510.8 17.812.317.8
2017-May-12 00:00N 38°54' W 019°30'   300 / 171006.010.8 15.511.216.5

Dump ship's entire track history